sensor_id;sensor_type;location;lat;lon;timestamp;P1;durP1;ratioP1;P2;durP2;ratioP2
73919;SDS011;62266;53.348;-1.496;2023-05-08T00:02:47;3.88;;;2.25;;
73919;SDS011;62266;53.348;-1.496;2023-05-08T00:05:32;2.65;;;2.00;;
73919;SDS011;62266;53.348;-1.496;2023-05-08T00:08:16;4.27;;;2.00;;
73919;SDS011;62266;53.348;-1.496;2023-05-08T00:11:00;5.57;;;1.90;;
73919;SDS011;62266;53.348;-1.496;2023-05-08T00:13:44;4.47;;;1.98;;
73919;SDS011;62266;53.348;-1.496;2023-05-08T00:16:28;4.82;;;1.90;;
73919;SDS011;62266;53.348;-1.496;2023-05-08T00:19:12;4.40;;;2.13;;
73919;SDS011;62266;53.348;-1.496;2023-05-08T00:21:56;4.67;;;2.20;;
73919;SDS011;62266;53.348;-1.496;2023-05-08T00:24:40;3.80;;;1.80;;
73919;SDS011;62266;53.348;-1.496;2023-05-08T00:27:24;5.70;;;2.35;;
73919;SDS011;62266;53.348;-1.496;2023-05-08T00:30:08;6.35;;;2.28;;
73919;SDS011;62266;53.348;-1.496;2023-05-08T00:32:52;2.80;;;2.30;;
73919;SDS011;62266;53.348;-1.496;2023-05-08T00:35:37;2.53;;;1.90;;
73919;SDS011;62266;53.348;-1.496;2023-05-08T00:38:23;3.65;;;2.00;;
73919;SDS011;62266;53.348;-1.496;2023-05-08T00:41:07;3.17;;;1.90;;
73919;SDS011;62266;53.348;-1.496;2023-05-08T00:43:51;9.93;;;2.72;;
73919;SDS011;62266;53.348;-1.496;2023-05-08T00:46:35;6.50;;;3.30;;
73919;SDS011;62266;53.348;-1.496;2023-05-08T00:49:19;3.50;;;2.63;;
73919;SDS011;62266;53.348;-1.496;2023-05-08T00:52:04;6.70;;;3.13;;
73919;SDS011;62266;53.348;-1.496;2023-05-08T00:54:52;5.03;;;3.25;;
73919;SDS011;62266;53.348;-1.496;2023-05-08T00:57:36;4.68;;;2.80;;
73919;SDS011;62266;53.348;-1.496;2023-05-08T01:00:21;7.05;;;3.22;;
73919;SDS011;62266;53.348;-1.496;2023-05-08T01:03:05;7.37;;;3.10;;
73919;SDS011;62266;53.348;-1.496;2023-05-08T01:05:50;6.45;;;3.58;;
73919;SDS011;62266;53.348;-1.496;2023-05-08T01:08:34;6.72;;;3.60;;
73919;SDS011;62266;53.348;-1.496;2023-05-08T01:33:34;4.97;;;2.83;;
73919;SDS011;62266;53.348;-1.496;2023-05-08T01:39:38;3.83;;;2.83;;
73919;SDS011;62266;53.348;-1.496;2023-05-08T01:42:44;4.57;;;2.90;;
73919;SDS011;62266;53.348;-1.496;2023-05-08T01:45:31;4.03;;;2.40;;
73919;SDS011;62266;53.348;-1.496;2023-05-08T01:48:23;5.17;;;2.17;;
73919;SDS011;62266;53.348;-1.496;2023-05-08T01:51:12;5.10;;;2.20;;
73919;SDS011;62266;53.348;-1.496;2023-05-08T01:54:00;3.53;;;2.15;;
73919;SDS011;62266;53.348;-1.496;2023-05-08T01:56:48;4.55;;;2.33;;
73919;SDS011;62266;53.348;-1.496;2023-05-08T01:59:33;4.95;;;2.38;;
73919;SDS011;62266;53.348;-1.496;2023-05-08T02:02:18;4.07;;;2.27;;
73919;SDS011;62266;53.348;-1.496;2023-05-08T02:05:04;4.70;;;2.15;;
73919;SDS011;62266;53.348;-1.496;2023-05-08T02:07:49;3.92;;;2.15;;
73919;SDS011;62266;53.348;-1.496;2023-05-08T02:10:34;3.63;;;2.00;;
73919;SDS011;62266;53.348;-1.496;2023-05-08T02:13:18;4.82;;;2.20;;
73919;SDS011;62266;53.348;-1.496;2023-05-08T02:16:03;3.33;;;2.03;;
73919;SDS011;62266;53.348;-1.496;2023-05-08T02:18:50;4.15;;;2.15;;
73919;SDS011;62266;53.348;-1.496;2023-05-08T02:21:35;3.15;;;2.00;;
73919;SDS011;62266;53.348;-1.496;2023-05-08T02:24:20;3.10;;;1.73;;
73919;SDS011;62266;53.348;-1.496;2023-05-08T02:27:04;4.18;;;1.90;;
73919;SDS011;62266;53.348;-1.496;2023-05-08T02:29:49;3.20;;;1.50;;
73919;SDS011;62266;53.348;-1.496;2023-05-08T02:32:34;4.38;;;1.65;;
73919;SDS011;62266;53.348;-1.496;2023-05-08T02:35:19;2.28;;;1.52;;
73919;SDS011;62266;53.348;-1.496;2023-05-08T02:38:04;3.50;;;1.50;;
73919;SDS011;62266;53.348;-1.496;2023-05-08T02:40:53;6.25;;;1.90;;
73919;SDS011;62266;53.348;-1.496;2023-05-08T02:43:40;3.50;;;1.80;;
73919;SDS011;62266;53.348;-1.496;2023-05-08T02:46:26;3.72;;;1.67;;
73919;SDS011;62266;53.348;-1.496;2023-05-08T02:49:29;3.70;;;1.80;;
73919;SDS011;62266;53.348;-1.496;2023-05-08T02:52:17;4.75;;;2.10;;
73919;SDS011;62266;53.348;-1.496;2023-05-08T02:58:01;2.73;;;1.63;;
73919;SDS011;62266;53.348;-1.496;2023-05-08T03:04:07;3.63;;;1.70;;
73919;SDS011;62266;53.348;-1.496;2023-05-08T03:06:52;3.13;;;1.77;;
73919;SDS011;62266;53.348;-1.496;2023-05-08T03:09:38;4.05;;;1.88;;
73919;SDS011;62266;53.348;-1.496;2023-05-08T03:12:25;5.70;;;1.60;;
73919;SDS011;62266;53.348;-1.496;2023-05-08T03:17:59;3.40;;;1.50;;
73919;SDS011;62266;53.348;-1.496;2023-05-08T03:20:53;3.65;;;1.55;;
73919;SDS011;62266;53.348;-1.496;2023-05-08T03:23:38;2.72;;;1.60;;
73919;SDS011;62266;53.348;-1.496;2023-05-08T03:26:23;2.80;;;1.57;;
73919;SDS011;62266;53.348;-1.496;2023-05-08T03:29:07;4.70;;;1.70;;
73919;SDS011;62266;53.348;-1.496;2023-05-08T03:31:52;3.13;;;1.40;;
73919;SDS011;62266;53.348;-1.496;2023-05-08T03:34:36;4.30;;;1.70;;
73919;SDS011;62266;53.348;-1.496;2023-05-08T03:37:21;2.25;;;1.50;;
73919;SDS011;62266;53.348;-1.496;2023-05-08T03:40:05;3.60;;;1.43;;
73919;SDS011;62266;53.348;-1.496;2023-05-08T03:42:50;4.25;;;1.33;;
73919;SDS011;62266;53.348;-1.496;2023-05-08T03:45:36;3.08;;;1.52;;
73919;SDS011;62266;53.348;-1.496;2023-05-08T03:48:21;3.83;;;1.73;;
73919;SDS011;62266;53.348;-1.496;2023-05-08T03:51:06;2.17;;;1.63;;
73919;SDS011;62266;53.348;-1.496;2023-05-08T03:53:50;3.27;;;1.60;;
73919;SDS011;62266;53.348;-1.496;2023-05-08T03:56:34;4.15;;;1.60;;
73919;SDS011;62266;53.348;-1.496;2023-05-08T03:59:28;3.88;;;1.75;;
73919;SDS011;62266;53.348;-1.496;2023-05-08T04:02:27;3.38;;;1.40;;
73919;SDS011;62266;53.348;-1.496;2023-05-08T04:06:00;2.95;;;1.42;;
73919;SDS011;62266;53.348;-1.496;2023-05-08T04:08:37;4.80;;;1.70;;
73919;SDS011;62266;53.348;-1.496;2023-05-08T04:14:49;5.32;;;1.60;;
73919;SDS011;62266;53.348;-1.496;2023-05-08T04:17:38;2.85;;;1.40;;
73919;SDS011;62266;53.348;-1.496;2023-05-08T04:20:26;3.67;;;1.63;;
73919;SDS011;62266;53.348;-1.496;2023-05-08T04:23:10;4.40;;;1.70;;
73919;SDS011;62266;53.348;-1.496;2023-05-08T04:25:57;2.97;;;1.50;;
73919;SDS011;62266;53.348;-1.496;2023-05-08T04:28:43;3.80;;;1.58;;
73919;SDS011;62266;53.348;-1.496;2023-05-08T04:31:29;2.75;;;1.60;;
73919;SDS011;62266;53.348;-1.496;2023-05-08T04:34:14;5.70;;;1.67;;
73919;SDS011;62266;53.348;-1.496;2023-05-08T04:36:58;4.03;;;1.57;;
73919;SDS011;62266;53.348;-1.496;2023-05-08T04:39:42;3.20;;;1.58;;
73919;SDS011;62266;53.348;-1.496;2023-05-08T04:42:26;2.60;;;1.50;;
73919;SDS011;62266;53.348;-1.496;2023-05-08T04:45:10;2.67;;;1.30;;
73919;SDS011;62266;53.348;-1.496;2023-05-08T04:47:55;5.60;;;1.67;;
73919;SDS011;62266;53.348;-1.496;2023-05-08T04:50:39;4.23;;;1.87;;
73919;SDS011;62266;53.348;-1.496;2023-05-08T04:53:23;2.70;;;1.73;;
73919;SDS011;62266;53.348;-1.496;2023-05-08T04:56:07;3.70;;;1.95;;
73919;SDS011;62266;53.348;-1.496;2023-05-08T04:58:51;4.57;;;1.73;;
73919;SDS011;62266;53.348;-1.496;2023-05-08T05:01:38;5.90;;;1.90;;
73919;SDS011;62266;53.348;-1.496;2023-05-08T05:04:22;4.17;;;1.90;;
73919;SDS011;62266;53.348;-1.496;2023-05-08T05:07:06;4.45;;;1.55;;
73919;SDS011;62266;53.348;-1.496;2023-05-08T05:09:50;4.50;;;1.85;;
73919;SDS011;62266;53.348;-1.496;2023-05-08T05:12:34;3.95;;;1.95;;
73919;SDS011;62266;53.348;-1.496;2023-05-08T05:15:18;3.85;;;1.98;;
73919;SDS011;62266;53.348;-1.496;2023-05-08T05:18:02;3.87;;;1.90;;
73919;SDS011;62266;53.348;-1.496;2023-05-08T05:20:45;6.90;;;2.22;;
73919;SDS011;62266;53.348;-1.496;2023-05-08T05:23:30;3.92;;;1.60;;
73919;SDS011;62266;53.348;-1.496;2023-05-08T05:26:14;7.53;;;2.30;;
73919;SDS011;62266;53.348;-1.496;2023-05-08T05:28:58;2.95;;;1.58;;
73919;SDS011;62266;53.348;-1.496;2023-05-08T05:31:42;4.67;;;2.00;;
73919;SDS011;62266;53.348;-1.496;2023-05-08T05:34:26;5.68;;;2.20;;
73919;SDS011;62266;53.348;-1.496;2023-05-08T05:37:10;7.97;;;1.92;;
73919;SDS011;62266;53.348;-1.496;2023-05-08T05:39:54;4.10;;;1.83;;
73919;SDS011;62266;53.348;-1.496;2023-05-08T05:42:38;4.90;;;2.20;;
73919;SDS011;62266;53.348;-1.496;2023-05-08T05:45:22;3.70;;;2.10;;
73919;SDS011;62266;53.348;-1.496;2023-05-08T05:48:06;4.72;;;2.20;;
73919;SDS011;62266;53.348;-1.496;2023-05-08T05:50:51;7.43;;;3.13;;
73919;SDS011;62266;53.348;-1.496;2023-05-08T05:53:35;4.60;;;2.03;;
73919;SDS011;62266;53.348;-1.496;2023-05-08T05:56:19;6.25;;;2.55;;
73919;SDS011;62266;53.348;-1.496;2023-05-08T05:59:04;5.10;;;2.00;;
73919;SDS011;62266;53.348;-1.496;2023-05-08T06:01:48;4.72;;;2.20;;
73919;SDS011;62266;53.348;-1.496;2023-05-08T06:04:32;4.53;;;2.20;;
73919;SDS011;62266;53.348;-1.496;2023-05-08T06:07:16;4.07;;;2.17;;
73919;SDS011;62266;53.348;-1.496;2023-05-08T06:10:01;5.70;;;2.60;;
73919;SDS011;62266;53.348;-1.496;2023-05-08T06:12:45;6.33;;;2.27;;
73919;SDS011;62266;53.348;-1.496;2023-05-08T06:15:29;5.53;;;2.45;;
73919;SDS011;62266;53.348;-1.496;2023-05-08T06:18:13;5.75;;;2.30;;
73919;SDS011;62266;53.348;-1.496;2023-05-08T06:20:58;4.10;;;1.90;;
73919;SDS011;62266;53.348;-1.496;2023-05-08T06:23:42;5.38;;;2.38;;
73919;SDS011;62266;53.348;-1.496;2023-05-08T06:26:26;6.27;;;2.43;;
73919;SDS011;62266;53.348;-1.496;2023-05-08T06:29:10;4.55;;;2.40;;
73919;SDS011;62266;53.348;-1.496;2023-05-08T06:31:54;6.25;;;2.42;;
73919;SDS011;62266;53.348;-1.496;2023-05-08T06:34:39;6.50;;;2.30;;
73919;SDS011;62266;53.348;-1.496;2023-05-08T06:37:26;3.80;;;2.38;;
73919;SDS011;62266;53.348;-1.496;2023-05-08T06:40:11;6.10;;;2.30;;
73919;SDS011;62266;53.348;-1.496;2023-05-08T06:42:56;6.18;;;2.35;;
73919;SDS011;62266;53.348;-1.496;2023-05-08T06:45:42;5.45;;;2.80;;
73919;SDS011;62266;53.348;-1.496;2023-05-08T06:48:26;4.75;;;2.70;;
73919;SDS011;62266;53.348;-1.496;2023-05-08T06:51:11;3.95;;;2.40;;
73919;SDS011;62266;53.348;-1.496;2023-05-08T06:53:55;5.60;;;2.30;;
73919;SDS011;62266;53.348;-1.496;2023-05-08T06:56:39;3.95;;;2.30;;
73919;SDS011;62266;53.348;-1.496;2023-05-08T06:59:23;7.07;;;2.50;;
73919;SDS011;62266;53.348;-1.496;2023-05-08T07:02:07;4.47;;;2.00;;
73919;SDS011;62266;53.348;-1.496;2023-05-08T07:04:53;6.78;;;3.08;;
73919;SDS011;62266;53.348;-1.496;2023-05-08T07:07:37;4.10;;;2.77;;
73919;SDS011;62266;53.348;-1.496;2023-05-08T07:10:21;5.57;;;2.55;;
73919;SDS011;62266;53.348;-1.496;2023-05-08T07:13:05;5.60;;;2.78;;
73919;SDS011;62266;53.348;-1.496;2023-05-08T07:15:49;4.47;;;2.13;;
73919;SDS011;62266;53.348;-1.496;2023-05-08T07:18:33;5.28;;;2.70;;
73919;SDS011;62266;53.348;-1.496;2023-05-08T07:21:18;6.37;;;2.90;;
73919;SDS011;62266;53.348;-1.496;2023-05-08T07:24:04;3.83;;;2.47;;
73919;SDS011;62266;53.348;-1.496;2023-05-08T07:26:48;6.32;;;2.78;;
73919;SDS011;62266;53.348;-1.496;2023-05-08T07:29:33;6.72;;;2.55;;
73919;SDS011;62266;53.348;-1.496;2023-05-08T07:32:18;6.53;;;3.00;;
73919;SDS011;62266;53.348;-1.496;2023-05-08T07:35:02;5.07;;;2.77;;
73919;SDS011;62266;53.348;-1.496;2023-05-08T07:37:48;6.57;;;3.00;;
73919;SDS011;62266;53.348;-1.496;2023-05-08T07:40:32;7.80;;;2.97;;
73919;SDS011;62266;53.348;-1.496;2023-05-08T07:43:16;8.70;;;2.90;;
73919;SDS011;62266;53.348;-1.496;2023-05-08T07:46:00;4.68;;;2.95;;
73919;SDS011;62266;53.348;-1.496;2023-05-08T07:48:44;5.20;;;2.80;;
73919;SDS011;62266;53.348;-1.496;2023-05-08T07:51:29;5.68;;;2.83;;
73919;SDS011;62266;53.348;-1.496;2023-05-08T07:54:12;6.55;;;2.63;;
73919;SDS011;62266;53.348;-1.496;2023-05-08T07:56:57;6.85;;;2.55;;
73919;SDS011;62266;53.348;-1.496;2023-05-08T07:59:41;5.80;;;2.90;;
73919;SDS011;62266;53.348;-1.496;2023-05-08T08:02:25;5.40;;;2.67;;
73919;SDS011;62266;53.348;-1.496;2023-05-08T08:05:09;5.40;;;2.70;;
73919;SDS011;62266;53.348;-1.496;2023-05-08T08:07:54;5.03;;;2.80;;
73919;SDS011;62266;53.348;-1.496;2023-05-08T08:10:38;4.80;;;2.45;;
73919;SDS011;62266;53.348;-1.496;2023-05-08T08:13:22;4.22;;;2.38;;
73919;SDS011;62266;53.348;-1.496;2023-05-08T08:16:07;7.70;;;2.90;;
73919;SDS011;62266;53.348;-1.496;2023-05-08T08:18:51;5.95;;;2.65;;
73919;SDS011;62266;53.348;-1.496;2023-05-08T08:21:40;5.10;;;2.70;;
73919;SDS011;62266;53.348;-1.496;2023-05-08T08:24:27;7.03;;;3.25;;
73919;SDS011;62266;53.348;-1.496;2023-05-08T08:27:12;6.53;;;2.95;;
73919;SDS011;62266;53.348;-1.496;2023-05-08T08:29:57;3.80;;;2.47;;
73919;SDS011;62266;53.348;-1.496;2023-05-08T08:32:41;6.63;;;3.00;;
73919;SDS011;62266;53.348;-1.496;2023-05-08T08:35:25;5.03;;;2.88;;
73919;SDS011;62266;53.348;-1.496;2023-05-08T08:38:12;5.35;;;2.63;;
73919;SDS011;62266;53.348;-1.496;2023-05-08T08:40:56;6.20;;;2.95;;
73919;SDS011;62266;53.348;-1.496;2023-05-08T08:43:40;4.37;;;2.30;;
73919;SDS011;62266;53.348;-1.496;2023-05-08T08:46:27;4.97;;;2.40;;
73919;SDS011;62266;53.348;-1.496;2023-05-08T08:49:12;5.13;;;2.50;;
73919;SDS011;62266;53.348;-1.496;2023-05-08T08:51:58;4.38;;;2.60;;
73919;SDS011;62266;53.348;-1.496;2023-05-08T08:54:45;5.82;;;2.60;;
73919;SDS011;62266;53.348;-1.496;2023-05-08T08:57:33;6.13;;;2.87;;
73919;SDS011;62266;53.348;-1.496;2023-05-08T09:00:20;6.00;;;2.50;;
73919;SDS011;62266;53.348;-1.496;2023-05-08T09:03:06;6.15;;;2.75;;
73919;SDS011;62266;53.348;-1.496;2023-05-08T09:05:53;6.63;;;2.72;;
73919;SDS011;62266;53.348;-1.496;2023-05-08T09:08:37;3.78;;;2.58;;
73919;SDS011;62266;53.348;-1.496;2023-05-08T09:11:22;5.20;;;2.80;;
73919;SDS011;62266;53.348;-1.496;2023-05-08T09:14:08;4.93;;;2.75;;
73919;SDS011;62266;53.348;-1.496;2023-05-08T09:16:52;3.78;;;3.00;;
73919;SDS011;62266;53.348;-1.496;2023-05-08T09:19:37;5.57;;;3.15;;
73919;SDS011;62266;53.348;-1.496;2023-05-08T09:22:21;6.38;;;3.38;;
73919;SDS011;62266;53.348;-1.496;2023-05-08T09:25:06;5.03;;;3.30;;
73919;SDS011;62266;53.348;-1.496;2023-05-08T09:27:51;4.47;;;3.00;;
73919;SDS011;62266;53.348;-1.496;2023-05-08T09:30:46;4.00;;;3.00;;
73919;SDS011;62266;53.348;-1.496;2023-05-08T09:33:51;4.72;;;3.30;;
73919;SDS011;62266;53.348;-1.496;2023-05-08T09:36:38;5.07;;;3.40;;
73919;SDS011;62266;53.348;-1.496;2023-05-08T09:39:24;6.77;;;3.53;;
73919;SDS011;62266;53.348;-1.496;2023-05-08T09:42:09;5.05;;;2.78;;
73919;SDS011;62266;53.348;-1.496;2023-05-08T09:44:53;4.00;;;2.83;;
73919;SDS011;62266;53.348;-1.496;2023-05-08T09:47:37;5.22;;;3.20;;
73919;SDS011;62266;53.348;-1.496;2023-05-08T09:50:23;3.35;;;2.63;;
73919;SDS011;62266;53.348;-1.496;2023-05-08T09:53:08;3.23;;;2.47;;
73919;SDS011;62266;53.348;-1.496;2023-05-08T09:55:52;3.00;;;2.20;;
73919;SDS011;62266;53.348;-1.496;2023-05-08T09:58:40;2.50;;;1.80;;
73919;SDS011;62266;53.348;-1.496;2023-05-08T10:01:29;5.68;;;2.15;;
73919;SDS011;62266;53.348;-1.496;2023-05-08T10:04:16;4.32;;;2.20;;
73919;SDS011;62266;53.348;-1.496;2023-05-08T10:07:00;3.83;;;2.30;;
73919;SDS011;62266;53.348;-1.496;2023-05-08T10:09:56;3.50;;;2.20;;
73919;SDS011;62266;53.348;-1.496;2023-05-08T10:12:50;4.32;;;2.10;;
73919;SDS011;62266;53.348;-1.496;2023-05-08T10:15:35;2.53;;;1.85;;
73919;SDS011;62266;53.348;-1.496;2023-05-08T10:18:20;4.10;;;2.20;;
73919;SDS011;62266;53.348;-1.496;2023-05-08T10:21:07;3.40;;;2.20;;
73919;SDS011;62266;53.348;-1.496;2023-05-08T10:23:52;3.95;;;2.25;;
73919;SDS011;62266;53.348;-1.496;2023-05-08T10:26:39;2.38;;;1.67;;
73919;SDS011;62266;53.348;-1.496;2023-05-08T10:29:33;1.88;;;1.60;;
73919;SDS011;62266;53.348;-1.496;2023-05-08T10:32:34;3.25;;;2.40;;
73919;SDS011;62266;53.348;-1.496;2023-05-08T10:35:23;3.30;;;2.30;;
73919;SDS011;62266;53.348;-1.496;2023-05-08T10:38:08;2.95;;;2.67;;
73919;SDS011;62266;53.348;-1.496;2023-05-08T10:40:52;3.63;;;3.33;;
73919;SDS011;62266;53.348;-1.496;2023-05-08T10:43:40;4.13;;;3.13;;
73919;SDS011;62266;53.348;-1.496;2023-05-08T10:47:09;4.30;;;3.42;;
73919;SDS011;62266;53.348;-1.496;2023-05-08T10:52:46;3.83;;;3.20;;
73919;SDS011;62266;53.348;-1.496;2023-05-08T10:55:37;3.28;;;2.95;;
73919;SDS011;62266;53.348;-1.496;2023-05-08T11:03:50;3.00;;;2.80;;
73919;SDS011;62266;53.348;-1.496;2023-05-08T11:06:44;3.10;;;2.90;;
73919;SDS011;62266;53.348;-1.496;2023-05-08T11:09:43;3.10;;;2.80;;
73919;SDS011;62266;53.348;-1.496;2023-05-08T11:12:30;2.58;;;2.38;;
73919;SDS011;62266;53.348;-1.496;2023-05-08T11:15:16;3.10;;;2.80;;
73919;SDS011;62266;53.348;-1.496;2023-05-08T11:18:18;2.60;;;2.40;;
73919;SDS011;62266;53.348;-1.496;2023-05-08T11:21:17;3.03;;;2.50;;
73919;SDS011;62266;53.348;-1.496;2023-05-08T11:24:08;3.08;;;2.78;;
73919;SDS011;62266;53.348;-1.496;2023-05-08T11:26:53;4.80;;;3.35;;
73919;SDS011;62266;53.348;-1.496;2023-05-08T11:29:37;4.25;;;3.88;;
73919;SDS011;62266;53.348;-1.496;2023-05-08T11:32:22;5.50;;;4.30;;
73919;SDS011;62266;53.348;-1.496;2023-05-08T11:35:08;5.95;;;4.80;;
73919;SDS011;62266;53.348;-1.496;2023-05-08T11:38:10;5.47;;;4.70;;
73919;SDS011;62266;53.348;-1.496;2023-05-08T11:41:08;4.78;;;4.30;;
73919;SDS011;62266;53.348;-1.496;2023-05-08T11:44:08;4.80;;;4.40;;
73919;SDS011;62266;53.348;-1.496;2023-05-08T11:47:03;4.33;;;3.90;;
73919;SDS011;62266;53.348;-1.496;2023-05-08T11:49:47;5.20;;;4.70;;
73919;SDS011;62266;53.348;-1.496;2023-05-08T11:52:32;4.25;;;3.83;;
73919;SDS011;62266;53.348;-1.496;2023-05-08T11:55:17;4.57;;;4.13;;
73919;SDS011;62266;53.348;-1.496;2023-05-08T11:58:10;4.50;;;3.70;;
73919;SDS011;62266;53.348;-1.496;2023-05-08T12:00:55;4.60;;;4.20;;
73919;SDS011;62266;53.348;-1.496;2023-05-08T12:03:40;4.32;;;3.92;;
73919;SDS011;62266;53.348;-1.496;2023-05-08T12:06:24;3.95;;;3.60;;
73919;SDS011;62266;53.348;-1.496;2023-05-08T12:09:10;4.32;;;4.00;;
73919;SDS011;62266;53.348;-1.496;2023-05-08T12:11:56;5.30;;;4.45;;
73919;SDS011;62266;53.348;-1.496;2023-05-08T12:14:41;6.23;;;5.53;;
73919;SDS011;62266;53.348;-1.496;2023-05-08T12:17:25;6.25;;;5.65;;
73919;SDS011;62266;53.348;-1.496;2023-05-08T12:20:12;6.60;;;6.00;;
73919;SDS011;62266;53.348;-1.496;2023-05-08T12:23:00;6.50;;;5.90;;
73919;SDS011;62266;53.348;-1.496;2023-05-08T12:25:45;6.93;;;6.32;;
73919;SDS011;62266;53.348;-1.496;2023-05-08T12:28:30;6.73;;;5.57;;
73919;SDS011;62266;53.348;-1.496;2023-05-08T12:31:17;7.38;;;6.22;;
73919;SDS011;62266;53.348;-1.496;2023-05-08T12:34:05;6.20;;;5.60;;
73919;SDS011;62266;53.348;-1.496;2023-05-08T12:36:59;6.60;;;6.00;;
73919;SDS011;62266;53.348;-1.496;2023-05-08T12:39:44;6.00;;;5.40;;
73919;SDS011;62266;53.348;-1.496;2023-05-08T12:42:45;5.03;;;4.63;;
73919;SDS011;62266;53.348;-1.496;2023-05-08T12:45:32;4.97;;;4.47;;
73919;SDS011;62266;53.348;-1.496;2023-05-08T12:48:17;7.07;;;4.88;;
73919;SDS011;62266;53.348;-1.496;2023-05-08T12:51:02;5.40;;;4.90;;
73919;SDS011;62266;53.348;-1.496;2023-05-08T12:53:47;4.88;;;4.47;;
73919;SDS011;62266;53.348;-1.496;2023-05-08T12:56:30;5.30;;;4.83;;
73919;SDS011;62266;53.348;-1.496;2023-05-08T12:59:15;5.30;;;4.80;;
73919;SDS011;62266;53.348;-1.496;2023-05-08T13:01:59;5.50;;;5.00;;
73919;SDS011;62266;53.348;-1.496;2023-05-08T13:04:44;4.68;;;4.28;;
73919;SDS011;62266;53.348;-1.496;2023-05-08T13:07:31;5.47;;;4.93;;
73919;SDS011;62266;53.348;-1.496;2023-05-08T13:10:15;5.90;;;5.40;;
73919;SDS011;62266;53.348;-1.496;2023-05-08T13:13:01;5.63;;;4.97;;
73919;SDS011;62266;53.348;-1.496;2023-05-08T13:15:45;5.13;;;4.63;;
73919;SDS011;62266;53.348;-1.496;2023-05-08T13:18:30;3.95;;;3.60;;
73919;SDS011;62266;53.348;-1.496;2023-05-08T13:21:15;4.30;;;3.90;;
73919;SDS011;62266;53.348;-1.496;2023-05-08T13:23:59;4.70;;;3.60;;
73919;SDS011;62266;53.348;-1.496;2023-05-08T13:26:44;4.40;;;3.20;;
73919;SDS011;62266;53.348;-1.496;2023-05-08T13:29:29;4.90;;;4.50;;
73919;SDS011;62266;53.348;-1.496;2023-05-08T13:32:13;4.78;;;4.38;;
73919;SDS011;62266;53.348;-1.496;2023-05-08T13:34:57;5.93;;;5.43;;
73919;SDS011;62266;53.348;-1.496;2023-05-08T13:37:41;4.90;;;4.40;;
73919;SDS011;62266;53.348;-1.496;2023-05-08T13:40:26;4.80;;;4.40;;
73919;SDS011;62266;53.348;-1.496;2023-05-08T13:43:11;4.70;;;4.25;;
73919;SDS011;62266;53.348;-1.496;2023-05-08T13:45:55;4.72;;;4.22;;
73919;SDS011;62266;53.348;-1.496;2023-05-08T13:48:40;4.40;;;4.00;;
73919;SDS011;62266;53.348;-1.496;2023-05-08T13:51:26;3.57;;;3.23;;
73919;SDS011;62266;53.348;-1.496;2023-05-08T13:54:10;4.47;;;3.58;;
73919;SDS011;62266;53.348;-1.496;2023-05-08T13:56:54;4.10;;;3.60;;
73919;SDS011;62266;53.348;-1.496;2023-05-08T13:59:38;3.65;;;3.13;;
73919;SDS011;62266;53.348;-1.496;2023-05-08T14:02:23;4.20;;;3.45;;
73919;SDS011;62266;53.348;-1.496;2023-05-08T14:05:07;3.70;;;3.30;;
73919;SDS011;62266;53.348;-1.496;2023-05-08T14:07:52;3.90;;;3.60;;
73919;SDS011;62266;53.348;-1.496;2023-05-08T14:10:36;3.38;;;3.08;;
73919;SDS011;62266;53.348;-1.496;2023-05-08T14:13:21;3.53;;;3.22;;
73919;SDS011;62266;53.348;-1.496;2023-05-08T14:16:07;3.70;;;3.40;;
73919;SDS011;62266;53.348;-1.496;2023-05-08T14:18:53;3.70;;;3.10;;
73919;SDS011;62266;53.348;-1.496;2023-05-08T14:21:37;4.30;;;3.90;;
73919;SDS011;62266;53.348;-1.496;2023-05-08T14:24:21;5.20;;;4.60;;
73919;SDS011;62266;53.348;-1.496;2023-05-08T14:27:05;4.90;;;4.50;;
73919;SDS011;62266;53.348;-1.496;2023-05-08T14:29:50;5.43;;;4.53;;
73919;SDS011;62266;53.348;-1.496;2023-05-08T14:32:36;4.90;;;4.40;;
73919;SDS011;62266;53.348;-1.496;2023-05-08T14:35:20;7.45;;;4.70;;
73919;SDS011;62266;53.348;-1.496;2023-05-08T14:38:05;5.35;;;4.85;;
73919;SDS011;62266;53.348;-1.496;2023-05-08T14:40:49;5.43;;;4.93;;
73919;SDS011;62266;53.348;-1.496;2023-05-08T14:43:34;5.35;;;4.85;;
73919;SDS011;62266;53.348;-1.496;2023-05-08T14:46:18;4.97;;;4.10;;
73919;SDS011;62266;53.348;-1.496;2023-05-08T14:49:03;3.92;;;3.63;;
73919;SDS011;62266;53.348;-1.496;2023-05-08T14:51:48;4.70;;;4.30;;
73919;SDS011;62266;53.348;-1.496;2023-05-08T14:54:32;4.10;;;3.70;;
73919;SDS011;62266;53.348;-1.496;2023-05-08T14:57:18;3.60;;;3.30;;
73919;SDS011;62266;53.348;-1.496;2023-05-08T15:00:03;4.27;;;3.70;;
73919;SDS011;62266;53.348;-1.496;2023-05-08T15:02:47;4.78;;;4.38;;
73919;SDS011;62266;53.348;-1.496;2023-05-08T15:05:31;4.85;;;4.38;;
73919;SDS011;62266;53.348;-1.496;2023-05-08T15:08:16;4.25;;;3.85;;
73919;SDS011;62266;53.348;-1.496;2023-05-08T15:11:00;4.45;;;4.05;;
73919;SDS011;62266;53.348;-1.496;2023-05-08T15:13:45;4.80;;;4.30;;
73919;SDS011;62266;53.348;-1.496;2023-05-08T15:16:29;4.80;;;4.32;;
73919;SDS011;62266;53.348;-1.496;2023-05-08T15:19:13;5.68;;;4.95;;
73919;SDS011;62266;53.348;-1.496;2023-05-08T15:21:57;4.57;;;4.18;;
73919;SDS011;62266;53.348;-1.496;2023-05-08T15:24:42;4.40;;;4.00;;
73919;SDS011;62266;53.348;-1.496;2023-05-08T15:27:30;4.63;;;4.23;;
73919;SDS011;62266;53.348;-1.496;2023-05-08T15:30:14;4.95;;;4.45;;
73919;SDS011;62266;53.348;-1.496;2023-05-08T15:32:59;4.78;;;4.00;;
73919;SDS011;62266;53.348;-1.496;2023-05-08T15:35:43;4.72;;;4.20;;
73919;SDS011;62266;53.348;-1.496;2023-05-08T15:38:27;4.45;;;4.05;;
73919;SDS011;62266;53.348;-1.496;2023-05-08T15:41:11;4.67;;;4.27;;
73919;SDS011;62266;53.348;-1.496;2023-05-08T15:43:56;4.78;;;4.38;;
73919;SDS011;62266;53.348;-1.496;2023-05-08T15:46:40;4.57;;;3.80;;
73919;SDS011;62266;53.348;-1.496;2023-05-08T15:49:24;3.88;;;3.50;;
73919;SDS011;62266;53.348;-1.496;2023-05-08T15:52:10;4.30;;;4.00;;
73919;SDS011;62266;53.348;-1.496;2023-05-08T15:54:54;4.47;;;4.10;;
73919;SDS011;62266;53.348;-1.496;2023-05-08T15:57:38;4.95;;;4.13;;
73919;SDS011;62266;53.348;-1.496;2023-05-08T16:00:23;6.90;;;4.30;;
73919;SDS011;62266;53.348;-1.496;2023-05-08T16:03:07;5.68;;;5.10;;
73919;SDS011;62266;53.348;-1.496;2023-05-08T16:05:52;5.40;;;4.90;;
73919;SDS011;62266;53.348;-1.496;2023-05-08T16:08:36;5.33;;;4.83;;
73919;SDS011;62266;53.348;-1.496;2023-05-08T16:11:21;5.10;;;4.70;;
73919;SDS011;62266;53.348;-1.496;2023-05-08T16:14:06;5.40;;;4.90;;
73919;SDS011;62266;53.348;-1.496;2023-05-08T16:16:53;6.53;;;4.80;;
73919;SDS011;62266;53.348;-1.496;2023-05-08T16:19:37;4.97;;;4.35;;
73919;SDS011;62266;53.348;-1.496;2023-05-08T16:22:25;5.40;;;4.90;;
73919;SDS011;62266;53.348;-1.496;2023-05-08T16:25:10;5.30;;;4.80;;
73919;SDS011;62266;53.348;-1.496;2023-05-08T16:27:54;6.22;;;5.63;;
73919;SDS011;62266;53.348;-1.496;2023-05-08T16:30:39;6.32;;;5.28;;
73919;SDS011;62266;53.348;-1.496;2023-05-08T16:33:23;5.70;;;5.20;;
73919;SDS011;62266;53.348;-1.496;2023-05-08T16:36:10;6.37;;;5.77;;
73919;SDS011;62266;53.348;-1.496;2023-05-08T16:38:54;6.30;;;5.72;;
73919;SDS011;62266;53.348;-1.496;2023-05-08T16:41:38;7.22;;;6.20;;
73919;SDS011;62266;53.348;-1.496;2023-05-08T16:44:23;5.70;;;5.20;;
73919;SDS011;62266;53.348;-1.496;2023-05-08T16:47:07;5.70;;;5.20;;
73919;SDS011;62266;53.348;-1.496;2023-05-08T16:49:52;5.13;;;4.73;;
73919;SDS011;62266;53.348;-1.496;2023-05-08T16:52:36;5.32;;;4.82;;
73919;SDS011;62266;53.348;-1.496;2023-05-08T16:55:21;5.10;;;4.60;;
73919;SDS011;62266;53.348;-1.496;2023-05-08T16:58:06;5.35;;;4.78;;
73919;SDS011;62266;53.348;-1.496;2023-05-08T17:00:50;6.85;;;5.82;;
73919;SDS011;62266;53.348;-1.496;2023-05-08T17:03:35;5.33;;;4.83;;
73919;SDS011;62266;53.348;-1.496;2023-05-08T17:06:20;6.10;;;5.50;;
73919;SDS011;62266;53.348;-1.496;2023-05-08T17:09:05;5.32;;;4.82;;
73919;SDS011;62266;53.348;-1.496;2023-05-08T17:11:49;5.60;;;5.00;;